JYO weather

Leesburg Executive Airport
Leesburg, Virginia, United States

Public forecast

Using degrees Fahrenheit for public forecast. Weather courtesy of forecast.io.

Current aviation weather report (METAR) for Leesburg Executive Airport

Retrieved 2019/10/17 11:35 UTC (0 seconds ago):

KJYO 171135Z AUTO 29016G24KT 10SM OVC044 10/03 A2964 RMK AO2

Closest aviation forecast (TAF) to Leesburg Executive Airport

Closest forecast is Washington Dulles International Airport, 9.3 nm (17.3 km) SSE. Retrieved 2019/10/17 06:22 UTC (5 hours ago):

TAF KIAD 170520Z 1706/1812 26010G22KT P6SM FEW250 FM171200 27018G36KT P6SM FEW250 FM172300 28015G30KT P6SM SCT040 FM180400 30012G24KT P6SM FEW250 FM181000 30009KT P6SM FEW250